Time,TemperatureF,DewpointF,PressureIn,WindDirection,WindDirectionDegrees,WindSpeedMPH,WindSpeedGustMPH,Humidity,HourlyPrecipIn,Conditions,Clouds,dailyrainin,SoftwareType,DateUTC
2013-08-14 00:14:00,67.6,67.0,29.73,North,0,0.0,-999.0,98,-99.99,,,0.00,Acu-Link.com,2013-08-14 04:14:00,
2013-08-14 00:29:00,67.6,67.0,29.72,North,0,0.0,-999.0,98,-99.99,,,0.00,Acu-Link.com,2013-08-14 04:29:00,
2013-08-14 00:44:00,67.3,66.7,29.72,North,0,0.0,-999.0,98,-99.99,,,0.00,Acu-Link.com,2013-08-14 04:44:00,
2013-08-14 01:00:00,66.9,66.3,29.72,North,0,0.0,-999.0,98,-99.99,,,0.00,Acu-Link.com,2013-08-14 05:00:00,
2013-08-14 01:15:00,66.6,66.0,29.73,North,0,0.0,-999.0,98,-99.99,,,0.00,Acu-Link.com,2013-08-14 05:15:00,
2013-08-14 01:30:00,66.4,65.8,29.73,North,0,0.0,-999.0,98,-99.99,,,0.00,Acu-Link.com,2013-08-14 05:30:00,
2013-08-14 01:45:00,66.4,65.8,29.73,North,0,0.0,-999.0,98,-99.99,,,0.00,Acu-Link.com,2013-08-14 05:45:00,
2013-08-14 02:00:00,66.6,66.0,29.73,North,0,0.0,-999.0,98,-99.99,,,0.00,Acu-Link.com,2013-08-14 06:00:00,
2013-08-14 02:16:00,66.6,66.0,29.73,ESE,112,0.0,-999.0,98,-99.99,,,0.00,Acu-Link.com,2013-08-14 06:16:00,
2013-08-14 02:31:00,66.6,66.0,29.73,SSW,202,0.0,-999.0,98,-99.99,,,0.00,Acu-Link.com,2013-08-14 06:31:00,
2013-08-14 02:46:00,66.7,66.1,29.73,SE,135,0.0,-999.0,98,-99.99,,,0.00,Acu-Link.com,2013-08-14 06:46:00,
2013-08-14 03:01:00,66.6,66.0,29.72,SSE,157,0.0,-999.0,98,-99.99,,,0.00,Acu-Link.com,2013-08-14 07:01:00,
2013-08-14 03:16:00,65.8,65.2,29.72,SSW,202,0.0,-999.0,98,-99.99,,,0.00,Acu-Link.com,2013-08-14 07:16:00,
2013-08-14 03:32:00,65.7,65.1,29.72,ESE,112,0.0,-999.0,98,-99.99,,,0.00,Acu-Link.com,2013-08-14 07:32:00,
2013-08-14 03:47:00,65.5,64.9,29.72,SSW,202,0.0,-999.0,98,-99.99,,,0.00,Acu-Link.com,2013-08-14 07:47:00,
2013-08-14 04:02:00,65.7,65.1,29.73,North,0,0.0,-999.0,98,-99.99,,,0.00,Acu-Link.com,2013-08-14 08:02:00,
2013-08-14 04:18:00,65.5,64.9,29.72,NE,45,1.1,-999.0,98,-99.99,,,0.00,Acu-Link.com,2013-08-14 08:18:00,
2013-08-14 04:33:00,65.3,64.7,29.72,SSE,157,0.0,-999.0,98,-99.99,,,0.00,Acu-Link.com,2013-08-14 08:33:00,
2013-08-14 04:48:00,65.3,64.7,29.72,ESE,112,2.7,-999.0,98,-99.99,,,0.00,Acu-Link.com,2013-08-14 08:48:00,
2013-08-14 05:03:00,65.1,64.5,29.72,WNW,292,0.0,-999.0,98,-99.99,,,0.00,Acu-Link.com,2013-08-14 09:03:00,
2013-08-14 05:18:00,64.8,64.2,29.72,East,90,0.0,-999.0,98,-99.99,,,0.00,Acu-Link.com,2013-08-14 09:18:00,
2013-08-14 05:34:00,64.8,64.2,29.72,SSE,157,8.3,-999.0,98,-99.99,,,0.00,Acu-Link.com,2013-08-14 09:34:00,
2013-08-14 05:49:00,64.4,63.8,29.73,SSE,157,1.1,-999.0,98,-99.99,,,0.00,Acu-Link.com,2013-08-14 09:49:00,
2013-08-14 06:04:00,64.4,63.8,29.73,NNE,22,0.0,-999.0,98,-99.99,,,0.00,Acu-Link.com,2013-08-14 10:04:00,
2013-08-14 06:19:00,64.0,63.4,29.73,SE,135,1.1,-999.0,98,-99.99,,,0.00,Acu-Link.com,2013-08-14 10:19:00,
2013-08-14 06:34:00,63.9,63.3,29.74,East,90,3.2,-999.0,98,-99.99,,,0.00,Acu-Link.com,2013-08-14 10:34:00,
2013-08-14 06:50:00,63.7,63.1,29.75,WSW,247,2.2,-999.0,98,-99.99,,,0.00,Acu-Link.com,2013-08-14 10:50:00,
2013-08-14 07:05:00,63.7,63.1,29.75,ESE,112,3.7,-999.0,98,-99.99,,,0.00,Acu-Link.com,2013-08-14 11:05:00,
2013-08-14 07:20:00,63.7,63.1,29.76,SE,135,3.2,-999.0,98,-99.99,,,0.00,Acu-Link.com,2013-08-14 11:20:00,
2013-08-14 07:35:00,64.2,63.6,29.77,NE,45,1.7,-999.0,98,-99.99,,,0.00,Acu-Link.com,2013-08-14 11:35:00,
2013-08-14 07:50:00,64.2,63.6,29.77,ESE,112,2.2,-999.0,98,-99.99,,,0.00,Acu-Link.com,2013-08-14 11:50:00,
2013-08-14 08:06:00,64.4,63.8,29.77,WSW,247,3.7,-999.0,98,-99.99,,,0.00,Acu-Link.com,2013-08-14 12:06:00,
2013-08-14 08:21:00,64.8,64.2,29.78,ESE,112,3.2,-999.0,98,-99.99,,,0.00,Acu-Link.com,2013-08-14 12:21:00,
2013-08-14 08:36:00,67.6,67.0,29.78,ESE,112,0.0,-999.0,98,-99.99,,,0.00,Acu-Link.com,2013-08-14 12:36:00,
2013-08-14 08:51:00,70.9,70.3,29.79,SSE,157,2.2,-999.0,98,-99.99,,,0.00,Acu-Link.com,2013-08-14 12:51:00,
2013-08-14 09:06:00,70.5,69.9,29.80,South,180,1.7,-999.0,98,-99.99,,,0.00,Acu-Link.com,2013-08-14 13:06:00,
2013-08-14 09:22:00,69.8,69.2,29.79,ENE,67,0.0,-999.0,98,-99.99,,,0.00,Acu-Link.com,2013-08-14 13:22:00,
2013-08-14 09:37:00,70.9,70.3,29.80,ESE,112,0.0,-999.0,98,-99.99,,,0.00,Acu-Link.com,2013-08-14 13:37:00,
2013-08-14 09:52:00,70.0,69.4,29.80,SE,135,2.2,-999.0,98,-99.99,,,0.00,Acu-Link.com,2013-08-14 13:52:00,
2013-08-14 10:07:00,70.7,70.1,29.79,ESE,112,0.0,-999.0,98,-99.99,,,0.00,Acu-Link.com,2013-08-14 14:07:00,
2013-08-14 10:23:00,69.6,69.0,29.80,East,90,1.7,-999.0,98,-99.99,,,0.00,Acu-Link.com,2013-08-14 14:23:00,
2013-08-14 10:38:00,70.0,69.4,29.81,East,90,0.0,-999.0,98,-99.99,,,0.00,Acu-Link.com,2013-08-14 14:38:00,
2013-08-14 10:53:00,70.7,70.1,29.80,SE,135,2.2,-999.0,98,-99.99,,,0.00,Acu-Link.com,2013-08-14 14:53:00,
2013-08-14 11:08:00,70.2,69.6,29.81,East,90,0.0,-999.0,98,-99.99,,,0.00,Acu-Link.com,2013-08-14 15:08:00,
2013-08-14 11:23:00,73.6,73.0,29.81,ENE,67,0.0,-999.0,98,-99.99,,,0.00,Acu-Link.com,2013-08-14 15:23:00,
2013-08-14 11:39:00,72.5,71.9,29.81,ENE,67,1.1,-999.0,98,-99.99,,,0.00,Acu-Link.com,2013-08-14 15:39:00,
2013-08-14 11:54:00,73.4,72.8,29.81,East,90,2.7,-999.0,98,-99.99,,,0.00,Acu-Link.com,2013-08-14 15:54:00,
2013-08-14 12:09:00,79.7,79.1,29.81,SW,225,2.7,-999.0,98,-99.99,,,0.00,Acu-Link.com,2013-08-14 16:09:00,
2013-08-14 12:24:00,77.2,76.6,29.81,WNW,292,2.7,-999.0,98,-99.99,,,0.00,Acu-Link.com,2013-08-14 16:24:00,
2013-08-14 12:39:00,78.3,77.7,29.80,ESE,112,1.7,-999.0,98,-99.99,,,0.00,Acu-Link.com,2013-08-14 16:39:00,
2013-08-14 13:10:00,77.4,76.8,29.81,ENE,67,1.7,-999.0,98,-99.99,,,0.00,Acu-Link.com,2013-08-14 17:10:00,
2013-08-14 13:25:00,77.9,77.3,29.80,ESE,112,1.7,-999.0,98,-99.99,,,0.00,Acu-Link.com,2013-08-14 17:25:00,
2013-08-14 13:40:00,79.7,78.5,29.80,ESE,112,2.2,-999.0,96,-99.99,,,0.00,Acu-Link.com,2013-08-14 17:40:00,
2013-08-14 13:55:00,81.3,80.4,29.80,North,0,1.1,-999.0,97,-99.99,,,0.00,Acu-Link.com,2013-08-14 17:55:00,
2013-08-14 14:26:00,77.4,76.5,29.79,ESE,112,4.2,-999.0,97,-99.99,,,0.00,Acu-Link.com,2013-08-14 18:26:00,
2013-08-14 14:41:00,78.3,77.4,29.79,East,90,2.2,-999.0,97,-99.99,,,0.00,Acu-Link.com,2013-08-14 18:41:00,
2013-08-14 15:26:00,79.9,76.7,29.79,ESE,112,3.2,-999.0,90,-99.99,,,0.00,Acu-Link.com,2013-08-14 19:26:00,
2013-08-14 15:42:00,80.2,74.6,29.78,East,90,5.3,-999.0,83,-99.99,,,0.00,Acu-Link.com,2013-08-14 19:42:00,
2013-08-14 16:12:00,79.3,76.4,29.77,ESE,112,1.7,-999.0,91,-99.99,,,0.00,Acu-Link.com,2013-08-14 20:12:00,
2013-08-14 16:58:00,76.6,76.0,29.77,SW,225,1.7,-999.0,98,-99.99,,,0.00,Acu-Link.com,2013-08-14 20:58:00,
2013-08-14 17:13:00,77.0,76.4,29.78,SSE,157,0.0,-999.0,98,-99.99,,,0.00,Acu-Link.com,2013-08-14 21:13:00,
2013-08-14 17:28:00,74.1,73.5,29.78,NE,45,1.7,-999.0,98,-99.99,,,0.00,Acu-Link.com,2013-08-14 21:28:00,
2013-08-14 17:58:00,75.4,74.8,29.79,ESE,112,1.1,-999.0,98,-99.99,,,0.00,Acu-Link.com,2013-08-14 21:58:00,
2013-08-14 18:14:00,75.0,74.4,29.79,NE,45,0.0,-999.0,98,-99.99,,,0.00,Acu-Link.com,2013-08-14 22:14:00,
2013-08-14 18:29:00,74.1,73.5,29.79,East,90,0.0,-999.0,98,-99.99,,,0.00,Acu-Link.com,2013-08-14 22:29:00,
2013-08-14 18:44:00,73.9,73.3,29.80,ESE,112,0.0,-999.0,98,-99.99,,,0.00,Acu-Link.com,2013-08-14 22:44:00,
2013-08-14 18:59:00,73.8,73.2,29.79,ESE,112,1.1,-999.0,98,-99.99,,,0.00,Acu-Link.com,2013-08-14 22:59:00,
2013-08-14 19:15:00,73.2,72.6,29.80,NE,45,0.0,-999.0,98,-99.99,,,0.00,Acu-Link.com,2013-08-14 23:15:00,
2013-08-14 19:30:00,72.1,71.5,29.80,ESE,112,0.0,-999.0,98,-99.99,,,0.00,Acu-Link.com,2013-08-14 23:30:00,
2013-08-14 19:45:00,71.1,70.5,29.81,WSW,247,0.0,-999.0,98,-99.99,,,0.00,Acu-Link.com,2013-08-14 23:45:00,
2013-08-14 20:15:00,70.3,69.7,29.82,ENE,67,0.0,-999.0,98,-99.99,,,0.00,Acu-Link.com,2013-08-15 00:15:00,
2013-08-14 20:31:00,69.6,69.0,29.82,East,90,0.0,-999.0,98,-99.99,,,0.00,Acu-Link.com,2013-08-15 00:31:00,
2013-08-14 20:46:00,69.1,68.5,29.82,ENE,67,0.0,-999.0,98,-99.99,,,0.00,Acu-Link.com,2013-08-15 00:46:00,
2013-08-14 21:01:00,68.5,67.9,29.83,SSE,157,0.0,-999.0,98,-99.99,,,0.00,Acu-Link.com,2013-08-15 01:01:00,
2013-08-14 21:16:00,68.5,67.9,29.83,NNE,22,0.0,-999.0,98,-99.99,,,0.00,Acu-Link.com,2013-08-15 01:16:00,
2013-08-14 21:46:00,67.6,67.0,29.85,ESE,112,0.0,-999.0,98,-99.99,,,0.00,Acu-Link.com,2013-08-15 01:46:00,
2013-08-14 22:02:00,67.6,67.0,29.85,East,90,0.0,-999.0,98,-99.99,,,0.00,Acu-Link.com,2013-08-15 02:02:00,
2013-08-14 22:17:00,67.5,66.9,29.86,SW,225,0.0,-999.0,98,-99.99,,,0.00,Acu-Link.com,2013-08-15 02:17:00,
2013-08-14 22:32:00,67.5,66.9,29.87,SW,225,0.0,-999.0,98,-99.99,,,0.00,Acu-Link.com,2013-08-15 02:32:00,
2013-08-14 22:48:00,67.1,66.5,29.87,WNW,292,0.0,-999.0,98,-99.99,,,0.00,Acu-Link.com,2013-08-15 02:48:00,
2013-08-14 23:03:00,66.9,66.3,29.87,ENE,67,1.1,-999.0,98,-99.99,,,0.00,Acu-Link.com,2013-08-15 03:03:00,
2013-08-14 23:18:00,66.7,66.1,29.87,SSW,202,0.0,-999.0,98,-99.99,,,0.00,Acu-Link.com,2013-08-15 03:18:00,
2013-08-14 23:33:00,66.6,66.0,29.88,WNW,292,1.1,-999.0,98,-99.99,,,0.00,Acu-Link.com,2013-08-15 03:33:00,
2013-08-14 23:49:00,66.4,65.8,29.88,ESE,112,0.0,-999.0,98,-99.99,,,0.00,Acu-Link.com,2013-08-15 03:49:00,